sensor_id;sensor_type;location;lat;lon;timestamp;P1;durP1;ratioP1;P2;durP2;ratioP2
15132;SDS011;7667;51.232;17.110;2023-04-25T00:01:17;0.80;;;0.80;;
15132;SDS011;7667;51.232;17.110;2023-04-25T00:03:45;2.03;;;0.70;;
15132;SDS011;7667;51.232;17.110;2023-04-25T00:06:13;0.70;;;0.60;;
15132;SDS011;7667;51.232;17.110;2023-04-25T00:08:41;0.63;;;0.60;;
15132;SDS011;7667;51.232;17.110;2023-04-25T00:11:08;0.80;;;0.70;;
15132;SDS011;7667;51.232;17.110;2023-04-25T00:13:36;0.90;;;0.53;;
15132;SDS011;7667;51.232;17.110;2023-04-25T00:16:04;0.90;;;0.80;;
15132;SDS011;7667;51.232;17.110;2023-04-25T00:18:32;1.30;;;0.63;;
15132;SDS011;7667;51.232;17.110;2023-04-25T00:20:59;0.60;;;0.60;;
15132;SDS011;7667;51.232;17.110;2023-04-25T00:23:27;0.70;;;0.60;;
15132;SDS011;7667;51.232;17.110;2023-04-25T00:25:55;0.93;;;0.60;;
15132;SDS011;7667;51.232;17.110;2023-04-25T00:28:22;0.70;;;0.60;;
15132;SDS011;7667;51.232;17.110;2023-04-25T00:30:50;0.83;;;0.60;;
15132;SDS011;7667;51.232;17.110;2023-04-25T00:33:17;0.50;;;0.40;;
15132;SDS011;7667;51.232;17.110;2023-04-25T00:35:45;0.77;;;0.60;;
15132;SDS011;7667;51.232;17.110;2023-04-25T00:38:13;0.60;;;0.60;;
15132;SDS011;7667;51.232;17.110;2023-04-25T00:40:40;0.50;;;0.50;;
15132;SDS011;7667;51.232;17.110;2023-04-25T00:43:10;0.47;;;0.47;;
15132;SDS011;7667;51.232;17.110;2023-04-25T00:45:38;2.33;;;0.70;;
15132;SDS011;7667;51.232;17.110;2023-04-25T00:48:06;0.80;;;0.50;;
15132;SDS011;7667;51.232;17.110;2023-04-25T00:50:34;0.60;;;0.40;;
15132;SDS011;7667;51.232;17.110;2023-04-25T00:53:03;0.77;;;0.53;;
15132;SDS011;7667;51.232;17.110;2023-04-25T00:55:31;1.13;;;0.53;;
15132;SDS011;7667;51.232;17.110;2023-04-25T00:58:01;0.40;;;0.40;;
15132;SDS011;7667;51.232;17.110;2023-04-25T01:00:28;0.70;;;0.50;;
15132;SDS011;7667;51.232;17.110;2023-04-25T01:02:56;0.90;;;0.60;;
15132;SDS011;7667;51.232;17.110;2023-04-25T01:05:25;0.50;;;0.50;;
15132;SDS011;7667;51.232;17.110;2023-04-25T01:07:53;0.80;;;0.60;;
15132;SDS011;7667;51.232;17.110;2023-04-25T01:10:21;0.90;;;0.60;;
15132;SDS011;7667;51.232;17.110;2023-04-25T01:12:48;0.80;;;0.53;;
15132;SDS011;7667;51.232;17.110;2023-04-25T01:15:16;1.07;;;0.60;;
15132;SDS011;7667;51.232;17.110;2023-04-25T01:17:44;0.67;;;0.67;;
15132;SDS011;7667;51.232;17.110;2023-04-25T01:20:12;0.80;;;0.80;;
15132;SDS011;7667;51.232;17.110;2023-04-25T01:22:42;1.37;;;0.70;;
15132;SDS011;7667;51.232;17.110;2023-04-25T01:25:10;1.07;;;0.73;;
15132;SDS011;7667;51.232;17.110;2023-04-25T01:27:39;2.23;;;0.93;;
15132;SDS011;7667;51.232;17.110;2023-04-25T01:30:07;1.47;;;0.90;;
15132;SDS011;7667;51.232;17.110;2023-04-25T01:32:36;1.23;;;1.00;;
15132;SDS011;7667;51.232;17.110;2023-04-25T01:35:07;1.47;;;0.90;;
15132;SDS011;7667;51.232;17.110;2023-04-25T01:37:41;1.00;;;0.87;;
15132;SDS011;7667;51.232;17.110;2023-04-25T01:40:10;1.70;;;0.90;;
15132;SDS011;7667;51.232;17.110;2023-04-25T01:42:40;1.07;;;1.00;;
15132;SDS011;7667;51.232;17.110;2023-04-25T01:45:10;1.93;;;1.07;;
15132;SDS011;7667;51.232;17.110;2023-04-25T01:47:38;1.83;;;0.97;;
15132;SDS011;7667;51.232;17.110;2023-04-25T01:50:08;1.30;;;0.90;;
15132;SDS011;7667;51.232;17.110;2023-04-25T01:52:37;1.37;;;1.03;;
15132;SDS011;7667;51.232;17.110;2023-04-25T01:55:05;1.03;;;0.90;;
15132;SDS011;7667;51.232;17.110;2023-04-25T01:57:33;1.40;;;1.07;;
15132;SDS011;7667;51.232;17.110;2023-04-25T02:00:02;1.20;;;0.97;;
15132;SDS011;7667;51.232;17.110;2023-04-25T02:02:33;2.47;;;1.00;;
15132;SDS011;7667;51.232;17.110;2023-04-25T02:05:01;1.30;;;0.97;;
15132;SDS011;7667;51.232;17.110;2023-04-25T02:07:29;1.70;;;1.00;;
15132;SDS011;7667;51.232;17.110;2023-04-25T02:09:56;1.40;;;1.10;;
15132;SDS011;7667;51.232;17.110;2023-04-25T02:12:24;1.73;;;1.07;;
15132;SDS011;7667;51.232;17.110;2023-04-25T02:14:53;1.80;;;1.27;;
15132;SDS011;7667;51.232;17.110;2023-04-25T02:17:21;1.83;;;1.10;;
15132;SDS011;7667;51.232;17.110;2023-04-25T02:19:48;2.40;;;1.30;;
15132;SDS011;7667;51.232;17.110;2023-04-25T02:22:16;2.30;;;1.33;;
15132;SDS011;7667;51.232;17.110;2023-04-25T02:24:45;2.03;;;1.43;;
15132;SDS011;7667;51.232;17.110;2023-04-25T02:27:13;1.47;;;1.30;;
15132;SDS011;7667;51.232;17.110;2023-04-25T02:29:40;2.17;;;1.47;;
15132;SDS011;7667;51.232;17.110;2023-04-25T02:32:08;3.10;;;1.50;;
15132;SDS011;7667;51.232;17.110;2023-04-25T02:34:35;1.90;;;1.40;;
15132;SDS011;7667;51.232;17.110;2023-04-25T02:37:04;2.53;;;1.63;;
15132;SDS011;7667;51.232;17.110;2023-04-25T02:39:31;1.70;;;1.40;;
15132;SDS011;7667;51.232;17.110;2023-04-25T02:41:59;2.37;;;1.30;;
15132;SDS011;7667;51.232;17.110;2023-04-25T02:44:27;2.77;;;1.50;;
15132;SDS011;7667;51.232;17.110;2023-04-25T02:46:55;2.03;;;1.60;;
15132;SDS011;7667;51.232;17.110;2023-04-25T02:49:22;1.67;;;1.57;;
15132;SDS011;7667;51.232;17.110;2023-04-25T02:51:50;1.60;;;1.50;;
15132;SDS011;7667;51.232;17.110;2023-04-25T02:54:18;1.90;;;1.80;;
15132;SDS011;7667;51.232;17.110;2023-04-25T02:56:45;2.23;;;1.60;;
15132;SDS011;7667;51.232;17.110;2023-04-25T02:59:13;2.10;;;1.70;;
15132;SDS011;7667;51.232;17.110;2023-04-25T03:01:40;1.70;;;1.60;;
15132;SDS011;7667;51.232;17.110;2023-04-25T03:04:08;3.40;;;1.60;;
15132;SDS011;7667;51.232;17.110;2023-04-25T03:06:36;2.67;;;1.83;;
15132;SDS011;7667;51.232;17.110;2023-04-25T03:09:03;2.50;;;1.90;;
15132;SDS011;7667;51.232;17.110;2023-04-25T03:11:31;2.10;;;1.90;;
15132;SDS011;7667;51.232;17.110;2023-04-25T03:13:58;4.17;;;1.90;;
15132;SDS011;7667;51.232;17.110;2023-04-25T03:16:26;2.47;;;2.00;;
15132;SDS011;7667;51.232;17.110;2023-04-25T03:18:54;4.30;;;2.10;;
15132;SDS011;7667;51.232;17.110;2023-04-25T03:21:22;3.10;;;2.20;;
15132;SDS011;7667;51.232;17.110;2023-04-25T03:23:49;2.40;;;2.20;;
15132;SDS011;7667;51.232;17.110;2023-04-25T03:26:17;2.67;;;2.10;;
15132;SDS011;7667;51.232;17.110;2023-04-25T03:28:45;3.83;;;2.23;;
15132;SDS011;7667;51.232;17.110;2023-04-25T03:31:13;2.80;;;2.40;;
15132;SDS011;7667;51.232;17.110;2023-04-25T03:33:40;2.60;;;2.40;;
15132;SDS011;7667;51.232;17.110;2023-04-25T03:36:08;2.63;;;2.40;;
15132;SDS011;7667;51.232;17.110;2023-04-25T03:38:36;3.00;;;2.60;;
15132;SDS011;7667;51.232;17.110;2023-04-25T03:41:04;2.93;;;2.60;;
15132;SDS011;7667;51.232;17.110;2023-04-25T03:43:31;3.73;;;2.73;;
15132;SDS011;7667;51.232;17.110;2023-04-25T03:45:59;3.20;;;2.90;;
15132;SDS011;7667;51.232;17.110;2023-04-25T03:48:27;3.40;;;3.10;;
15132;SDS011;7667;51.232;17.110;2023-04-25T03:50:55;3.77;;;2.97;;
15132;SDS011;7667;51.232;17.110;2023-04-25T03:53:22;3.10;;;2.80;;
15132;SDS011;7667;51.232;17.110;2023-04-25T03:55:51;4.23;;;2.97;;
15132;SDS011;7667;51.232;17.110;2023-04-25T03:58:19;2.83;;;2.63;;
15132;SDS011;7667;51.232;17.110;2023-04-25T04:00:47;3.57;;;2.93;;
15132;SDS011;7667;51.232;17.110;2023-04-25T04:03:14;2.83;;;2.63;;
15132;SDS011;7667;51.232;17.110;2023-04-25T04:05:42;3.20;;;2.83;;
15132;SDS011;7667;51.232;17.110;2023-04-25T04:08:10;4.17;;;3.17;;
15132;SDS011;7667;51.232;17.110;2023-04-25T04:10:37;6.47;;;5.40;;
15132;SDS011;7667;51.232;17.110;2023-04-25T04:13:05;4.13;;;3.60;;
15132;SDS011;7667;51.232;17.110;2023-04-25T04:15:32;3.30;;;3.00;;
15132;SDS011;7667;51.232;17.110;2023-04-25T04:18:00;4.50;;;3.20;;
15132;SDS011;7667;51.232;17.110;2023-04-25T04:20:29;4.37;;;3.00;;
15132;SDS011;7667;51.232;17.110;2023-04-25T04:22:57;5.40;;;3.40;;
15132;SDS011;7667;51.232;17.110;2023-04-25T04:25:25;3.60;;;3.30;;
15132;SDS011;7667;51.232;17.110;2023-04-25T04:27:52;3.90;;;3.33;;
15132;SDS011;7667;51.232;17.110;2023-04-25T04:30:22;4.67;;;3.50;;
15132;SDS011;7667;51.232;17.110;2023-04-25T04:32:51;3.93;;;3.53;;
15132;SDS011;7667;51.232;17.110;2023-04-25T04:35:19;4.30;;;3.90;;
15132;SDS011;7667;51.232;17.110;2023-04-25T04:37:46;4.30;;;3.90;;
15132;SDS011;7667;51.232;17.110;2023-04-25T04:40:14;4.57;;;3.73;;
15132;SDS011;7667;51.232;17.110;2023-04-25T04:42:43;6.23;;;3.90;;
15132;SDS011;7667;51.232;17.110;2023-04-25T04:45:14;4.67;;;3.83;;
15132;SDS011;7667;51.232;17.110;2023-04-25T04:47:42;4.17;;;3.70;;
15132;SDS011;7667;51.232;17.110;2023-04-25T04:50:10;5.10;;;3.83;;
15132;SDS011;7667;51.232;17.110;2023-04-25T04:52:38;4.20;;;3.70;;
15132;SDS011;7667;51.232;17.110;2023-04-25T04:55:05;4.80;;;3.87;;
15132;SDS011;7667;51.232;17.110;2023-04-25T04:57:34;5.27;;;4.17;;
15132;SDS011;7667;51.232;17.110;2023-04-25T05:00:02;4.97;;;4.10;;
15132;SDS011;7667;51.232;17.110;2023-04-25T05:02:38;4.47;;;4.00;;
15132;SDS011;7667;51.232;17.110;2023-04-25T05:05:06;5.50;;;3.97;;
15132;SDS011;7667;51.232;17.110;2023-04-25T05:07:34;4.80;;;4.30;;
15132;SDS011;7667;51.232;17.110;2023-04-25T05:10:02;5.23;;;4.13;;
15132;SDS011;7667;51.232;17.110;2023-04-25T05:12:30;5.33;;;4.10;;
15132;SDS011;7667;51.232;17.110;2023-04-25T05:14:59;5.03;;;4.03;;
15132;SDS011;7667;51.232;17.110;2023-04-25T05:17:27;4.93;;;4.13;;
15132;SDS011;7667;51.232;17.110;2023-04-25T05:19:55;5.83;;;4.50;;
15132;SDS011;7667;51.232;17.110;2023-04-25T05:22:22;4.20;;;3.80;;
15132;SDS011;7667;51.232;17.110;2023-04-25T05:24:50;4.87;;;4.33;;
15132;SDS011;7667;51.232;17.110;2023-04-25T05:27:21;6.00;;;4.37;;
15132;SDS011;7667;51.232;17.110;2023-04-25T05:29:49;6.00;;;4.30;;
15132;SDS011;7667;51.232;17.110;2023-04-25T05:32:16;5.43;;;4.00;;
15132;SDS011;7667;51.232;17.110;2023-04-25T05:34:44;4.77;;;4.27;;
15132;SDS011;7667;51.232;17.110;2023-04-25T05:37:12;5.67;;;4.47;;
15132;SDS011;7667;51.232;17.110;2023-04-25T05:39:40;4.70;;;4.20;;
15132;SDS011;7667;51.232;17.110;2023-04-25T05:42:07;4.70;;;4.13;;
15132;SDS011;7667;51.232;17.110;2023-04-25T05:44:35;5.13;;;4.50;;
15132;SDS011;7667;51.232;17.110;2023-04-25T05:47:02;4.53;;;4.13;;
15132;SDS011;7667;51.232;17.110;2023-04-25T05:49:31;5.23;;;4.20;;
15132;SDS011;7667;51.232;17.110;2023-04-25T05:51:59;4.30;;;3.63;;
15132;SDS011;7667;51.232;17.110;2023-04-25T05:54:26;4.60;;;4.20;;
15132;SDS011;7667;51.232;17.110;2023-04-25T05:56:55;4.00;;;3.60;;
15132;SDS011;7667;51.232;17.110;2023-04-25T05:59:24;4.53;;;4.10;;
15132;SDS011;7667;51.232;17.110;2023-04-25T06:01:51;4.57;;;4.07;;
15132;SDS011;7667;51.232;17.110;2023-04-25T06:04:19;5.37;;;4.40;;
15132;SDS011;7667;51.232;17.110;2023-04-25T06:06:47;5.03;;;4.10;;
15132;SDS011;7667;51.232;17.110;2023-04-25T06:09:15;4.43;;;4.00;;
15132;SDS011;7667;51.232;17.110;2023-04-25T06:11:44;4.47;;;3.47;;
15132;SDS011;7667;51.232;17.110;2023-04-25T06:14:11;3.70;;;3.30;;
15132;SDS011;7667;51.232;17.110;2023-04-25T06:16:39;4.60;;;3.80;;
15132;SDS011;7667;51.232;17.110;2023-04-25T06:19:06;4.10;;;3.20;;
15132;SDS011;7667;51.232;17.110;2023-04-25T06:21:34;4.60;;;3.60;;
15132;SDS011;7667;51.232;17.110;2023-04-25T06:24:01;4.37;;;3.50;;
15132;SDS011;7667;51.232;17.110;2023-04-25T06:26:29;4.90;;;3.00;;
15132;SDS011;7667;51.232;17.110;2023-04-25T06:28:57;5.63;;;3.20;;
15132;SDS011;7667;51.232;17.110;2023-04-25T06:31:24;4.90;;;3.13;;
15132;SDS011;7667;51.232;17.110;2023-04-25T06:33:52;3.10;;;2.70;;
15132;SDS011;7667;51.232;17.110;2023-04-25T06:36:21;4.40;;;2.70;;
15132;SDS011;7667;51.232;17.110;2023-04-25T06:38:51;4.37;;;2.70;;
15132;SDS011;7667;51.232;17.110;2023-04-25T06:41:19;5.57;;;2.80;;
15132;SDS011;7667;51.232;17.110;2023-04-25T06:43:47;3.70;;;2.50;;
15132;SDS011;7667;51.232;17.110;2023-04-25T06:46:15;5.53;;;2.73;;
15132;SDS011;7667;51.232;17.110;2023-04-25T06:48:42;5.30;;;2.80;;
15132;SDS011;7667;51.232;17.110;2023-04-25T06:51:10;4.10;;;2.90;;
15132;SDS011;7667;51.232;17.110;2023-04-25T06:53:40;3.63;;;3.30;;
15132;SDS011;7667;51.232;17.110;2023-04-25T06:56:07;4.60;;;3.37;;
15132;SDS011;7667;51.232;17.110;2023-04-25T06:58:35;4.67;;;3.83;;
15132;SDS011;7667;51.232;17.110;2023-04-25T07:01:02;3.80;;;3.50;;
15132;SDS011;7667;51.232;17.110;2023-04-25T07:03:30;3.93;;;3.30;;
15132;SDS011;7667;51.232;17.110;2023-04-25T07:05:58;3.60;;;3.00;;
15132;SDS011;7667;51.232;17.110;2023-04-25T07:08:26;5.77;;;3.50;;
15132;SDS011;7667;51.232;17.110;2023-04-25T07:10:55;4.70;;;3.27;;
15132;SDS011;7667;51.232;17.110;2023-04-25T07:13:23;4.27;;;3.30;;
15132;SDS011;7667;51.232;17.110;2023-04-25T07:15:51;4.73;;;3.20;;
15132;SDS011;7667;51.232;17.110;2023-04-25T07:18:20;5.47;;;3.77;;
15132;SDS011;7667;51.232;17.110;2023-04-25T07:20:48;4.00;;;2.90;;
15132;SDS011;7667;51.232;17.110;2023-04-25T07:23:15;4.57;;;3.30;;
15132;SDS011;7667;51.232;17.110;2023-04-25T07:25:43;4.47;;;3.30;;
15132;SDS011;7667;51.232;17.110;2023-04-25T07:28:11;3.90;;;3.10;;
15132;SDS011;7667;51.232;17.110;2023-04-25T07:30:38;3.67;;;2.90;;
15132;SDS011;7667;51.232;17.110;2023-04-25T07:33:06;5.37;;;3.00;;
15132;SDS011;7667;51.232;17.110;2023-04-25T07:35:34;4.40;;;2.90;;
15132;SDS011;7667;51.232;17.110;2023-04-25T07:38:02;3.73;;;2.70;;
15132;SDS011;7667;51.232;17.110;2023-04-25T07:40:30;4.80;;;2.97;;
15132;SDS011;7667;51.232;17.110;2023-04-25T07:42:57;3.57;;;2.63;;
15132;SDS011;7667;51.232;17.110;2023-04-25T07:45:25;4.13;;;2.47;;
15132;SDS011;7667;51.232;17.110;2023-04-25T07:47:53;3.03;;;2.20;;
15132;SDS011;7667;51.232;17.110;2023-04-25T07:50:21;4.27;;;2.63;;
15132;SDS011;7667;51.232;17.110;2023-04-25T07:52:48;3.03;;;2.40;;
15132;SDS011;7667;51.232;17.110;2023-04-25T07:55:16;4.50;;;2.53;;
15132;SDS011;7667;51.232;17.110;2023-04-25T07:57:44;3.70;;;2.27;;
15132;SDS011;7667;51.232;17.110;2023-04-25T08:00:11;3.57;;;2.30;;
15132;SDS011;7667;51.232;17.110;2023-04-25T08:02:41;4.27;;;2.13;;
15132;SDS011;7667;51.232;17.110;2023-04-25T08:05:09;3.17;;;2.60;;
15132;SDS011;7667;51.232;17.110;2023-04-25T08:07:41;4.27;;;2.70;;
15132;SDS011;7667;51.232;17.110;2023-04-25T08:10:09;4.90;;;2.10;;
15132;SDS011;7667;51.232;17.110;2023-04-25T08:12:37;4.23;;;2.47;;
15132;SDS011;7667;51.232;17.110;2023-04-25T08:15:05;4.90;;;2.83;;
15132;SDS011;7667;51.232;17.110;2023-04-25T08:17:33;5.27;;;2.07;;
15132;SDS011;7667;51.232;17.110;2023-04-25T08:20:00;4.07;;;2.17;;
15132;SDS011;7667;51.232;17.110;2023-04-25T08:22:32;4.53;;;2.30;;
15132;SDS011;7667;51.232;17.110;2023-04-25T08:25:00;3.97;;;2.70;;
15132;SDS011;7667;51.232;17.110;2023-04-25T08:27:28;3.87;;;2.30;;
15132;SDS011;7667;51.232;17.110;2023-04-25T08:29:55;3.90;;;2.50;;
15132;SDS011;7667;51.232;17.110;2023-04-25T08:32:24;4.87;;;2.40;;
15132;SDS011;7667;51.232;17.110;2023-04-25T08:34:55;3.73;;;2.40;;
15132;SDS011;7667;51.232;17.110;2023-04-25T08:37:23;5.80;;;2.57;;
15132;SDS011;7667;51.232;17.110;2023-04-25T08:39:50;4.43;;;2.30;;
15132;SDS011;7667;51.232;17.110;2023-04-25T08:42:19;3.17;;;2.33;;
15132;SDS011;7667;51.232;17.110;2023-04-25T08:44:49;4.30;;;2.63;;
15132;SDS011;7667;51.232;17.110;2023-04-25T08:47:20;2.97;;;2.57;;
15132;SDS011;7667;51.232;17.110;2023-04-25T08:49:50;5.07;;;2.57;;
15132;SDS011;7667;51.232;17.110;2023-04-25T08:52:22;4.33;;;2.93;;
15132;SDS011;7667;51.232;17.110;2023-04-25T08:54:51;3.63;;;2.93;;
15132;SDS011;7667;51.232;17.110;2023-04-25T08:57:21;3.97;;;3.30;;
15132;SDS011;7667;51.232;17.110;2023-04-25T08:59:49;6.03;;;3.50;;
15132;SDS011;7667;51.232;17.110;2023-04-25T09:02:18;3.30;;;2.80;;
15132;SDS011;7667;51.232;17.110;2023-04-25T09:04:47;3.47;;;3.10;;
15132;SDS011;7667;51.232;17.110;2023-04-25T09:07:16;4.07;;;3.53;;
15132;SDS011;7667;51.232;17.110;2023-04-25T09:09:47;6.13;;;3.27;;
15132;SDS011;7667;51.232;17.110;2023-04-25T09:12:16;4.20;;;3.10;;
15132;SDS011;7667;51.232;17.110;2023-04-25T09:15:05;4.77;;;3.53;;
15132;SDS011;7667;51.232;17.110;2023-04-25T09:17:49;4.47;;;3.57;;
15132;SDS011;7667;51.232;17.110;2023-04-25T09:20:24;5.83;;;3.50;;
15132;SDS011;7667;51.232;17.110;2023-04-25T09:23:01;5.03;;;3.57;;
15132;SDS011;7667;51.232;17.110;2023-04-25T09:25:34;3.73;;;3.30;;
15132;SDS011;7667;51.232;17.110;2023-04-25T09:28:06;4.13;;;3.20;;
15132;SDS011;7667;51.232;17.110;2023-04-25T09:30:34;3.90;;;3.53;;
15132;SDS011;7667;51.232;17.110;2023-04-25T09:33:04;3.67;;;3.20;;
15132;SDS011;7667;51.232;17.110;2023-04-25T09:35:44;3.60;;;3.00;;
15132;SDS011;7667;51.232;17.110;2023-04-25T09:38:13;4.00;;;2.93;;
15132;SDS011;7667;51.232;17.110;2023-04-25T09:40:44;5.00;;;2.87;;
15132;SDS011;7667;51.232;17.110;2023-04-25T09:43:20;3.73;;;2.90;;
15132;SDS011;7667;51.232;17.110;2023-04-25T09:45:50;3.97;;;2.70;;
15132;SDS011;7667;51.232;17.110;2023-04-25T09:48:24;4.87;;;3.20;;
15132;SDS011;7667;51.232;17.110;2023-04-25T09:51:09;4.00;;;3.40;;
15132;SDS011;7667;51.232;17.110;2023-04-25T09:53:41;4.77;;;3.20;;
15132;SDS011;7667;51.232;17.110;2023-04-25T09:56:16;3.27;;;2.70;;
15132;SDS011;7667;51.232;17.110;2023-04-25T09:58:46;3.57;;;2.80;;
15132;SDS011;7667;51.232;17.110;2023-04-25T10:01:16;3.40;;;2.67;;
15132;SDS011;7667;51.232;17.110;2023-04-25T10:03:44;3.00;;;2.70;;
15132;SDS011;7667;51.232;17.110;2023-04-25T10:06:17;3.60;;;2.47;;
15132;SDS011;7667;51.232;17.110;2023-04-25T10:08:46;3.90;;;3.10;;
15132;SDS011;7667;51.232;17.110;2023-04-25T10:11:18;3.07;;;2.60;;
15132;SDS011;7667;51.232;17.110;2023-04-25T10:13:45;4.07;;;2.73;;
15132;SDS011;7667;51.232;17.110;2023-04-25T10:16:14;6.03;;;3.20;;
15132;SDS011;7667;51.232;17.110;2023-04-25T10:18:43;4.00;;;2.40;;
15132;SDS011;7667;51.232;17.110;2023-04-25T10:21:10;5.27;;;3.00;;
15132;SDS011;7667;51.232;17.110;2023-04-25T10:23:38;4.53;;;2.70;;
15132;SDS011;7667;51.232;17.110;2023-04-25T10:26:07;3.67;;;2.27;;
15132;SDS011;7667;51.232;17.110;2023-04-25T10:29:01;4.27;;;3.30;;
15132;SDS011;7667;51.232;17.110;2023-04-25T10:31:31;3.13;;;2.20;;
15132;SDS011;7667;51.232;17.110;2023-04-25T10:34:00;3.43;;;1.60;;
15132;SDS011;7667;51.232;17.110;2023-04-25T10:36:31;3.07;;;1.80;;
15132;SDS011;7667;51.232;17.110;2023-04-25T10:39:02;2.77;;;1.73;;
15132;SDS011;7667;51.232;17.110;2023-04-25T10:41:45;2.17;;;1.80;;
15132;SDS011;7667;51.232;17.110;2023-04-25T10:44:14;2.53;;;2.00;;
15132;SDS011;7667;51.232;17.110;2023-04-25T10:46:42;3.20;;;1.80;;
15132;SDS011;7667;51.232;17.110;2023-04-25T10:49:28;2.40;;;2.20;;
15132;SDS011;7667;51.232;17.110;2023-04-25T10:52:12;2.30;;;1.80;;
15132;SDS011;7667;51.232;17.110;2023-04-25T10:54:55;1.83;;;1.60;;
15132;SDS011;7667;51.232;17.110;2023-04-25T10:57:40;1.87;;;1.40;;
15132;SDS011;7667;51.232;17.110;2023-04-25T11:00:15;1.70;;;1.50;;
15132;SDS011;7667;51.232;17.110;2023-04-25T11:02:46;2.13;;;1.60;;
15132;SDS011;7667;51.232;17.110;2023-04-25T11:08:00;2.63;;;1.70;;
15132;SDS011;7667;51.232;17.110;2023-04-25T11:10:34;3.53;;;2.30;;
15132;SDS011;7667;51.232;17.110;2023-04-25T11:13:04;2.17;;;1.97;;
15132;SDS011;7667;51.232;17.110;2023-04-25T11:15:32;2.40;;;1.90;;
15132;SDS011;7667;51.232;17.110;2023-04-25T11:17:59;4.30;;;3.97;;
15132;SDS011;7667;51.232;17.110;2023-04-25T11:20:27;1.93;;;1.40;;
15132;SDS011;7667;51.232;17.110;2023-04-25T11:22:57;1.97;;;1.53;;
15132;SDS011;7667;51.232;17.110;2023-04-25T11:25:33;2.43;;;1.50;;
15132;SDS011;7667;51.232;17.110;2023-04-25T11:28:03;1.93;;;1.30;;
15132;SDS011;7667;51.232;17.110;2023-04-25T11:30:31;3.33;;;1.77;;
15132;SDS011;7667;51.232;17.110;2023-04-25T11:32:59;3.60;;;1.67;;
15132;SDS011;7667;51.232;17.110;2023-04-25T11:35:26;2.37;;;2.17;;
15132;SDS011;7667;51.232;17.110;2023-04-25T11:37:54;2.40;;;1.67;;
15132;SDS011;7667;51.232;17.110;2023-04-25T11:40:22;1.77;;;1.40;;
15132;SDS011;7667;51.232;17.110;2023-04-25T11:42:50;1.77;;;1.50;;
15132;SDS011;7667;51.232;17.110;2023-04-25T11:45:20;1.40;;;1.30;;
15132;SDS011;7667;51.232;17.110;2023-04-25T11:47:50;1.93;;;1.40;;
15132;SDS011;7667;51.232;17.110;2023-04-25T11:50:19;2.30;;;1.50;;
15132;SDS011;7667;51.232;17.110;2023-04-25T11:52:47;2.23;;;1.37;;
15132;SDS011;7667;51.232;17.110;2023-04-25T11:55:16;4.63;;;2.40;;
15132;SDS011;7667;51.232;17.110;2023-04-25T11:57:47;1.73;;;1.17;;
15132;SDS011;7667;51.232;17.110;2023-04-25T12:00:20;2.00;;;1.20;;
15132;SDS011;7667;51.232;17.110;2023-04-25T12:02:52;1.60;;;1.30;;
15132;SDS011;7667;51.232;17.110;2023-04-25T12:05:30;1.60;;;1.20;;
15132;SDS011;7667;51.232;17.110;2023-04-25T12:08:13;1.30;;;1.13;;
15132;SDS011;7667;51.232;17.110;2023-04-25T12:10:43;2.30;;;1.50;;
15132;SDS011;7667;51.232;17.110;2023-04-25T12:13:19;2.73;;;1.77;;
15132;SDS011;7667;51.232;17.110;2023-04-25T12:15:53;3.77;;;1.60;;
15132;SDS011;7667;51.232;17.110;2023-04-25T12:18:23;2.10;;;1.50;;
15132;SDS011;7667;51.232;17.110;2023-04-25T12:20:54;2.87;;;1.90;;
15132;SDS011;7667;51.232;17.110;2023-04-25T12:23:26;2.77;;;1.27;;
15132;SDS011;7667;51.232;17.110;2023-04-25T12:25:55;1.77;;;1.40;;
15132;SDS011;7667;51.232;17.110;2023-04-25T12:28:24;3.40;;;1.50;;
15132;SDS011;7667;51.232;17.110;2023-04-25T12:33:29;3.43;;;1.40;;
15132;SDS011;7667;51.232;17.110;2023-04-25T12:36:04;1.67;;;1.57;;
15132;SDS011;7667;51.232;17.110;2023-04-25T12:38:40;2.00;;;1.50;;
15132;SDS011;7667;51.232;17.110;2023-04-25T12:41:09;1.93;;;1.30;;
15132;SDS011;7667;51.232;17.110;2023-04-25T12:43:37;2.93;;;1.47;;
15132;SDS011;7667;51.232;17.110;2023-04-25T12:46:04;1.90;;;1.40;;
15132;SDS011;7667;51.232;17.110;2023-04-25T12:48:32;1.77;;;1.30;;
15132;SDS011;7667;51.232;17.110;2023-04-25T12:51:00;1.87;;;1.20;;
15132;SDS011;7667;51.232;17.110;2023-04-25T12:53:28;2.33;;;1.50;;
15132;SDS011;7667;51.232;17.110;2023-04-25T12:55:55;2.30;;;1.73;;
15132;SDS011;7667;51.232;17.110;2023-04-25T12:58:24;3.60;;;1.60;;
15132;SDS011;7667;51.232;17.110;2023-04-25T13:00:52;1.80;;;1.30;;
15132;SDS011;7667;51.232;17.110;2023-04-25T13:03:20;3.23;;;1.50;;
15132;SDS011;7667;51.232;17.110;2023-04-25T13:05:48;3.63;;;1.40;;
15132;SDS011;7667;51.232;17.110;2023-04-25T13:08:17;2.20;;;1.47;;
15132;SDS011;7667;51.232;17.110;2023-04-25T13:10:44;2.30;;;1.60;;
15132;SDS011;7667;51.232;17.110;2023-04-25T13:13:12;2.30;;;1.50;;
15132;SDS011;7667;51.232;17.110;2023-04-25T13:15:41;1.63;;;1.50;;
15132;SDS011;7667;51.232;17.110;2023-04-25T13:18:08;1.67;;;1.40;;
15132;SDS011;7667;51.232;17.110;2023-04-25T13:20:36;2.33;;;1.30;;
15132;SDS011;7667;51.232;17.110;2023-04-25T13:23:04;3.57;;;2.33;;
15132;SDS011;7667;51.232;17.110;2023-04-25T13:25:31;1.93;;;1.43;;
15132;SDS011;7667;51.232;17.110;2023-04-25T13:27:59;3.37;;;1.90;;
15132;SDS011;7667;51.232;17.110;2023-04-25T13:30:29;1.70;;;1.60;;
15132;SDS011;7667;51.232;17.110;2023-04-25T13:32:56;4.47;;;2.20;;
15132;SDS011;7667;51.232;17.110;2023-04-25T13:35:30;1.87;;;1.53;;
15132;SDS011;7667;51.232;17.110;2023-04-25T13:37:57;1.93;;;1.57;;
15132;SDS011;7667;51.232;17.110;2023-04-25T13:40:26;2.37;;;1.60;;
15132;SDS011;7667;51.232;17.110;2023-04-25T13:42:54;2.37;;;1.60;;
15132;SDS011;7667;51.232;17.110;2023-04-25T13:45:22;2.67;;;2.00;;
15132;SDS011;7667;51.232;17.110;2023-04-25T13:47:50;2.53;;;1.67;;
15132;SDS011;7667;51.232;17.110;2023-04-25T13:50:18;2.50;;;1.80;;
15132;SDS011;7667;51.232;17.110;2023-04-25T13:52:47;1.93;;;1.73;;
15132;SDS011;7667;51.232;17.110;2023-04-25T13:55:14;5.67;;;2.10;;
15132;SDS011;7667;51.232;17.110;2023-04-25T13:57:42;5.13;;;1.80;;
15132;SDS011;7667;51.232;17.110;2023-04-25T14:00:10;2.03;;;1.40;;
15132;SDS011;7667;51.232;17.110;2023-04-25T14:02:38;1.80;;;1.57;;
15132;SDS011;7667;51.232;17.110;2023-04-25T14:05:07;2.47;;;1.80;;
15132;SDS011;7667;51.232;17.110;2023-04-25T14:07:36;2.43;;;1.83;;
15132;SDS011;7667;51.232;17.110;2023-04-25T14:10:04;2.53;;;1.70;;
15132;SDS011;7667;51.232;17.110;2023-04-25T14:12:33;2.43;;;1.80;;
15132;SDS011;7667;51.232;17.110;2023-04-25T14:15:01;3.90;;;1.80;;
15132;SDS011;7667;51.232;17.110;2023-04-25T14:17:28;4.20;;;2.40;;
15132;SDS011;7667;51.232;17.110;2023-04-25T14:19:56;4.73;;;4.00;;
15132;SDS011;7667;51.232;17.110;2023-04-25T14:22:24;1.97;;;1.43;;
15132;SDS011;7667;51.232;17.110;2023-04-25T14:24:52;4.17;;;1.53;;
15132;SDS011;7667;51.232;17.110;2023-04-25T14:27:20;12.33;;;7.73;;
15132;SDS011;7667;51.232;17.110;2023-04-25T14:29:48;10.43;;;6.87;;
15132;SDS011;7667;51.232;17.110;2023-04-25T14:32:16;3.30;;;2.30;;
15132;SDS011;7667;51.232;17.110;2023-04-25T14:34:44;2.60;;;1.90;;
15132;SDS011;7667;51.232;17.110;2023-04-25T14:37:11;4.77;;;2.90;;
15132;SDS011;7667;51.232;17.110;2023-04-25T14:39:39;3.20;;;1.63;;
15132;SDS011;7667;51.232;17.110;2023-04-25T14:42:07;2.63;;;1.90;;
15132;SDS011;7667;51.232;17.110;2023-04-25T14:44:34;2.63;;;1.70;;
15132;SDS011;7667;51.232;17.110;2023-04-25T14:47:02;4.63;;;2.30;;
15132;SDS011;7667;51.232;17.110;2023-04-25T14:49:31;2.40;;;1.93;;
15132;SDS011;7667;51.232;17.110;2023-04-25T14:51:59;3.33;;;2.20;;
15132;SDS011;7667;51.232;17.110;2023-04-25T14:54:27;2.93;;;1.97;;
15132;SDS011;7667;51.232;17.110;2023-04-25T14:56:55;2.97;;;1.97;;
15132;SDS011;7667;51.232;17.110;2023-04-25T14:59:24;2.97;;;2.30;;
15132;SDS011;7667;51.232;17.110;2023-04-25T15:01:52;3.03;;;2.07;;
15132;SDS011;7667;51.232;17.110;2023-04-25T15:04:19;3.40;;;2.50;;